Time;durP1;ratioP1;P1;durP2;ratioP2;P2;SDS_P1;SDS_P2;PMS_P1;PMS_P2;Temp;Humidity;BMP_temperature;BMP_pressure;BME280_temperature;BME280_humidity;BME280_pressure;Samples;Min_cycle;Max_cycle;Signal;HPM_P1;HPM_P2
2021/04/09 00:00:48;;;;;;;11.70;9.93;;;2.30;99.90;;;;;;5013406;28;20523;-43
2021/04/09 00:03:15;;;;;;;12.77;10.40;;;2.30;99.90;;;;;;5003220;28;20487;-42
2021/04/09 00:05:43;;;;;;;14.90;11.20;;;2.30;99.90;;;;;;5018418;28;20480;-45
2021/04/09 00:08:09;;;;;;;14.53;9.60;;;2.30;99.90;;;;;;5019509;28;20514;-42
2021/04/09 00:10:36;;;;;;;13.53;10.57;;;2.30;99.90;;;;;;5020059;28;20464;-45
2021/04/09 00:13:03;;;;;;;12.90;9.97;;;2.30;99.90;;;;;;5016003;28;20460;-48
2021/04/09 00:15:30;;;;;;;10.73;9.20;;;2.20;99.90;;;;;;5019882;28;20446;-41
2021/04/09 00:17:57;;;;;;;16.80;11.00;;;2.30;99.90;;;;;;5019798;28;20472;-44
2021/04/09 00:20:25;;;;;;;17.37;10.80;;;2.30;99.90;;;;;;5002080;28;20508;-46
2021/04/09 00:22:55;;;;;;;13.13;10.03;;;2.30;99.90;;;;;;5016013;28;20468;-43
2021/04/09 00:25:24;;;;;;;11.80;9.50;;;2.20;99.90;;;;;;5019520;28;20805;-42
2021/04/09 00:27:53;;;;;;;13.20;9.60;;;2.30;99.90;;;;;;5009702;28;20877;-44
2021/04/09 00:30:24;;;;;;;15.73;10.00;;;2.20;99.90;;;;;;5018745;28;20911;-45
2021/04/09 00:32:51;;;;;;;12.60;9.37;;;2.20;99.90;;;;;;5011362;28;20488;-43
2021/04/09 00:35:18;;;;;;;16.43;9.93;;;2.10;99.90;;;;;;5010034;28;20486;-42
2021/04/09 00:37:45;;;;;;;13.83;9.67;;;2.20;99.90;;;;;;5020196;28;20471;-43
2021/04/09 00:40:16;;;;;;;13.47;9.73;;;2.20;99.90;;;;;;5006939;28;20808;-44
2021/04/09 00:42:43;;;;;;;12.13;9.90;;;2.20;99.90;;;;;;5000748;28;20475;-45
2021/04/09 00:45:14;;;;;;;14.60;10.83;;;2.20;99.90;;;;;;5000493;28;20468;-42
2021/04/09 00:47:43;;;;;;;12.67;9.27;;;2.20;99.90;;;;;;5000469;28;20460;-42
2021/04/09 00:50:12;;;;;;;12.83;10.13;;;2.10;99.90;;;;;;5004635;28;20465;-43
2021/04/09 00:52:44;;;;;;;13.87;9.53;;;2.20;99.90;;;;;;5001413;28;20484;-45
2021/04/09 00:55:13;;;;;;;14.53;10.00;;;2.20;99.90;;;;;;5002921;28;20478;-49
2021/04/09 00:57:40;;;;;;;10.57;9.57;;;2.20;99.90;;;;;;5015796;28;20473;-43
2021/04/09 01:00:10;;;;;;;10.93;9.80;;;2.20;99.90;;;;;;4999981;28;20499;-43
2021/04/09 01:02:37;;;;;;;11.53;10.37;;;2.20;99.90;;;;;;5006502;28;20882;-46
2021/04/09 01:05:05;;;;;;;11.20;9.60;;;2.20;99.90;;;;;;5015673;28;20460;-45
2021/04/09 01:07:32;;;;;;;12.13;10.13;;;2.20;99.90;;;;;;5013142;28;20449;-44
2021/04/09 01:09:59;;;;;;;11.73;10.30;;;2.20;99.90;;;;;;5012934;28;20472;-42
2021/04/09 01:12:26;;;;;;;10.70;9.60;;;2.20;99.90;;;;;;5018168;28;20468;-43
2021/04/09 01:14:53;;;;;;;12.77;9.40;;;2.20;99.90;;;;;;5005300;28;20460;-47
2021/04/09 01:17:27;;;;;;;12.60;10.03;;;2.20;99.90;;;;;;5006131;28;20469;-42
2021/04/09 01:20:29;;;;;;;10.80;8.53;;;2.30;99.90;;;;;;5018923;28;20549;-44
2021/04/09 01:23:11;;;;;;;11.23;8.80;;;2.40;99.90;;;;;;4935897;29;20504;-42
2021/04/09 01:26:13;;;;;;;11.17;8.57;;;2.40;99.90;;;;;;4929674;28;20496;-43
2021/04/09 01:28:55;;;;;;;9.93;8.90;;;2.40;99.90;;;;;;5002199;28;20801;-45
2021/04/09 01:31:40;;;;;;;10.47;9.13;;;2.50;99.90;;;;;;5015931;28;20463;-44
2021/04/09 01:34:09;;;;;;;11.73;8.00;;;2.50;99.90;;;;;;4998860;28;20461;-43
2021/04/09 01:36:41;;;;;;;10.13;8.10;;;2.70;99.90;;;;;;4999575;28;20446;-46
2021/04/09 01:39:12;;;;;;;10.90;8.70;;;2.70;99.90;;;;;;5009688;28;20464;-43
2021/04/09 01:41:40;;;;;;;11.87;8.27;;;2.80;99.90;;;;;;5016241;28;20456;-42
2021/04/09 01:44:09;;;;;;;12.13;8.07;;;2.70;99.90;;;;;;5013387;28;20443;-45
2021/04/09 01:46:40;;;;;;;12.23;8.10;;;2.70;99.90;;;;;;5015056;28;20750;-43
2021/04/09 01:49:08;;;;;;;13.07;8.83;;;2.60;99.90;;;;;;5015249;28;20463;-43
2021/04/09 01:51:39;;;;;;;9.80;8.17;;;2.60;99.90;;;;;;5014910;28;20905;-43
2021/04/09 01:54:08;;;;;;;12.07;8.80;;;2.60;99.90;;;;;;5014898;28;20427;-45
2021/04/09 01:56:37;;;;;;;9.00;8.10;;;2.50;99.90;;;;;;5017634;28;20494;-44
2021/04/09 01:59:06;;;;;;;10.83;8.30;;;2.50;99.90;;;;;;5010992;28;20468;-43
2021/04/09 02:01:34;;;;;;;13.73;8.90;;;2.50;99.90;;;;;;5012005;28;20526;-43
2021/04/09 02:04:02;;;;;;;12.77;8.03;;;2.40;99.90;;;;;;5008216;28;20468;-44
2021/04/09 02:06:29;;;;;;;12.40;9.30;;;2.30;99.90;;;;;;5015535;28;20468;-44
2021/04/09 02:08:57;;;;;;;10.07;7.87;;;2.30;99.90;;;;;;5016700;28;20471;-42
2021/04/09 02:11:24;;;;;;;8.67;7.80;;;2.40;99.90;;;;;;5018126;28;20768;-43
2021/04/09 02:13:52;;;;;;;11.60;8.50;;;2.50;99.90;;;;;;5005178;28;20763;-44
2021/04/09 02:16:19;;;;;;;8.90;8.00;;;2.60;99.90;;;;;;4998989;28;20768;-46
2021/04/09 02:18:46;;;;;;;11.07;8.07;;;2.70;99.90;;;;;;5001918;28;20897;-43
2021/04/09 02:21:14;;;;;;;12.13;8.50;;;2.80;99.90;;;;;;5015514;28;20489;-44
2021/04/09 02:23:40;;;;;;;10.07;7.43;;;2.80;99.90;;;;;;5017671;28;20464;-46
2021/04/09 02:26:07;;;;;;;11.50;8.90;;;2.70;99.90;;;;;;5017848;28;20487;-46
2021/04/09 02:28:34;;;;;;;10.00;8.10;;;2.70;99.90;;;;;;5018088;28;20479;-44
2021/04/09 02:31:05;;;;;;;12.93;8.80;;;2.70;99.90;;;;;;5017984;28;20460;-43
2021/04/09 02:33:33;;;;;;;11.30;8.50;;;2.80;99.90;;;;;;5017605;28;20470;-46
2021/04/09 02:36:07;;;;;;;10.23;8.30;;;2.70;99.90;;;;;;5017618;28;20518;-43
2021/04/09 02:38:35;;;;;;;9.93;7.50;;;2.70;99.90;;;;;;5017812;28;20456;-43
2021/04/09 02:41:02;;;;;;;11.33;8.60;;;2.70;99.90;;;;;;5017651;28;20488;-43
2021/04/09 02:43:30;;;;;;;10.40;7.60;;;2.80;99.90;;;;;;5018124;28;20890;-43
2021/04/09 02:45:57;;;;;;;10.93;8.87;;;2.80;99.90;;;;;;5017355;28;20909;-46
2021/04/09 02:48:26;;;;;;;13.50;8.53;;;2.90;99.90;;;;;;5017941;28;20464;-42
2021/04/09 02:50:53;;;;;;;9.67;7.50;;;2.80;99.90;;;;;;5017547;28;20535;-43
2021/04/09 02:53:27;;;;;;;10.23;8.40;;;2.70;99.90;;;;;;5017168;28;20464;-46
2021/04/09 02:55:57;;;;;;;9.83;8.70;;;2.70;99.90;;;;;;5017486;28;20566;-43
2021/04/09 02:58:25;;;;;;;11.97;7.73;;;2.70;99.90;;;;;;5018081;28;20516;-43
2021/04/09 03:00:53;;;;;;;12.20;7.70;;;2.60;99.90;;;;;;5017686;28;20484;-44
2021/04/09 03:03:20;;;;;;;9.57;8.23;;;2.80;99.90;;;;;;5010351;28;20495;-42
2021/04/09 03:05:53;;;;;;;9.23;7.80;;;2.80;99.90;;;;;;5004206;28;20442;-45
2021/04/09 03:08:21;;;;;;;9.77;7.90;;;2.70;99.90;;;;;;5000493;28;20868;-43
2021/04/09 03:10:51;;;;;;;11.80;8.73;;;2.70;99.90;;;;;;5010549;28;20515;-43
2021/04/09 03:13:18;;;;;;;12.03;8.73;;;2.80;99.90;;;;;;5009683;28;20460;-42
2021/04/09 03:15:50;;;;;;;11.63;9.43;;;2.80;99.90;;;;;;5014256;28;20526;-46
2021/04/09 03:18:18;;;;;;;14.80;8.20;;;2.80;99.90;;;;;;5017055;28;20464;-42
2021/04/09 03:20:44;;;;;;;10.50;8.87;;;2.80;99.90;;;;;;5016422;28;20824;-46
2021/04/09 03:23:11;;;;;;;12.93;8.50;;;2.90;99.90;;;;;;5016667;28;20468;-42
2021/04/09 03:25:38;;;;;;;10.37;9.33;;;2.90;99.90;;;;;;5016962;28;20753;-42
2021/04/09 03:28:05;;;;;;;12.77;9.87;;;2.90;99.90;;;;;;5016472;28;20472;-43
2021/04/09 03:30:34;;;;;;;11.30;7.93;;;2.90;99.90;;;;;;5017369;28;20765;-48
2021/04/09 03:33:01;;;;;;;11.20;8.80;;;2.90;99.90;;;;;;5020938;28;20495;-46
2021/04/09 03:35:28;;;;;;;12.97;8.90;;;3.00;99.90;;;;;;5024419;28;20885;-43
2021/04/09 03:37:54;;;;;;;11.53;8.60;;;3.00;99.90;;;;;;5023928;28;20518;-43
2021/04/09 03:40:21;;;;;;;14.30;10.17;;;3.00;99.90;;;;;;5010661;28;20835;-44
2021/04/09 03:42:47;;;;;;;13.87;9.20;;;3.00;99.90;;;;;;5023004;28;20474;-44
2021/04/09 03:45:14;;;;;;;14.23;9.60;;;3.10;99.90;;;;;;5023576;28;20475;-42
2021/04/09 03:47:42;;;;;;;11.53;8.30;;;3.00;99.90;;;;;;5023941;28;20434;-47
2021/04/09 03:50:09;;;;;;;10.40;9.30;;;2.90;99.90;;;;;;5023532;28;20434;-44
2021/04/09 03:52:37;;;;;;;12.23;9.60;;;2.90;99.90;;;;;;5023543;28;20439;-45
2021/04/09 03:55:06;;;;;;;12.60;8.90;;;2.90;99.90;;;;;;5023072;28;20468;-44
2021/04/09 03:57:38;;;;;;;14.20;9.30;;;2.80;99.90;;;;;;5023885;28;20450;-46
2021/04/09 04:00:07;;;;;;;10.33;9.23;;;2.80;99.90;;;;;;5023726;28;20499;-49
2021/04/09 04:02:34;;;;;;;12.50;9.00;;;2.80;99.90;;;;;;5023666;28;20468;-44
2021/04/09 04:05:04;;;;;;;14.23;9.70;;;2.80;99.90;;;;;;5010014;28;20530;-43
2021/04/09 04:07:31;;;;;;;11.10;9.60;;;2.70;99.90;;;;;;5014100;28;20460;-42
2021/04/09 04:09:57;;;;;;;14.67;9.87;;;2.70;99.90;;;;;;5004054;28;20463;-44
2021/04/09 04:12:24;;;;;;;11.70;9.00;;;2.70;99.90;;;;;;5004377;28;20464;-45
2021/04/09 04:14:53;;;;;;;14.40;10.23;;;2.80;99.90;;;;;;5003872;28;20461;-46
2021/04/09 04:17:20;;;;;;;12.30;9.00;;;2.80;99.90;;;;;;5003711;28;20464;-44
2021/04/09 04:19:46;;;;;;;11.37;9.63;;;2.80;99.90;;;;;;5003796;28;20492;-43
2021/04/09 04:22:14;;;;;;;12.47;10.17;;;2.80;99.90;;;;;;5003362;28;20469;-44
2021/04/09 04:24:40;;;;;;;15.90;9.53;;;2.90;99.90;;;;;;5003855;28;20487;-42
2021/04/09 04:27:07;;;;;;;13.60;8.60;;;2.80;99.90;;;;;;5003480;28;20473;-45
2021/04/09 04:29:34;;;;;;;9.93;8.77;;;2.80;99.90;;;;;;5004037;28;20468;-44
2021/04/09 04:32:01;;;;;;;13.00;10.90;;;2.80;99.90;;;;;;5003784;28;20555;-47
2021/04/09 04:34:28;;;;;;;14.70;10.10;;;2.80;99.90;;;;;;5004457;28;20477;-42
2021/04/09 04:36:57;;;;;;;15.60;9.17;;;3.00;99.90;;;;;;5003523;28;20469;-45
2021/04/09 04:39:24;;;;;;;12.77;10.67;;;3.00;99.90;;;;;;5003796;28;20769;-43
2021/04/09 04:41:52;;;;;;;14.20;9.57;;;3.10;99.90;;;;;;5003938;28;20765;-42
2021/04/09 04:44:22;;;;;;;10.17;8.13;;;3.10;99.90;;;;;;5001916;28;20465;-46
2021/04/09 04:46:49;;;;;;;13.73;9.50;;;3.20;99.90;;;;;;5000402;28;20500;-43
2021/04/09 04:49:15;;;;;;;15.67;10.00;;;3.30;99.90;;;;;;5000694;28;20750;-46
2021/04/09 04:51:42;;;;;;;11.60;8.97;;;3.30;99.90;;;;;;5000819;28;20461;-43
2021/04/09 04:54:08;;;;;;;14.50;10.13;;;3.30;99.90;;;;;;4999716;28;20488;-44
2021/04/09 04:56:36;;;;;;;12.60;10.40;;;3.40;99.90;;;;;;5000089;28;20484;-48
2021/04/09 04:59:03;;;;;;;13.13;10.27;;;3.30;99.90;;;;;;5000425;28;20500;-45
2021/04/09 05:01:30;;;;;;;13.10;11.70;;;3.30;99.90;;;;;;5018096;28;20498;-43
2021/04/09 05:03:56;;;;;;;13.10;10.03;;;3.30;99.90;;;;;;5007034;28;20475;-42
2021/04/09 05:06:23;;;;;;;10.20;9.10;;;3.40;99.90;;;;;;5012949;28;20733;-43
2021/04/09 05:08:49;;;;;;;15.13;10.30;;;3.50;99.90;;;;;;4999888;28;20465;-46
2021/04/09 05:11:16;;;;;;;13.00;11.00;;;3.50;99.90;;;;;;5000178;28;20895;-42
2021/04/09 05:13:48;;;;;;;16.13;10.20;;;3.50;99.90;;;;;;4999744;28;20457;-43
2021/04/09 05:16:14;;;;;;;12.83;9.87;;;3.70;99.90;;;;;;5000214;28;20476;-46
2021/04/09 05:18:41;;;;;;;11.83;10.27;;;3.70;99.90;;;;;;5002126;28;20468;-43
2021/04/09 05:21:07;;;;;;;11.93;9.50;;;3.80;99.90;;;;;;5018326;28;20534;-43
2021/04/09 05:23:34;;;;;;;10.07;8.73;;;3.90;99.90;;;;;;5018933;28;20472;-43
2021/04/09 05:26:01;;;;;;;16.70;11.67;;;4.00;99.90;;;;;;5019005;28;20468;-47
2021/04/09 05:28:27;;;;;;;19.63;13.27;;;4.10;99.90;;;;;;5017014;28;20450;-45
2021/04/09 05:30:55;;;;;;;13.40;10.57;;;4.10;99.90;;;;;;5018859;28;20464;-43
2021/04/09 05:33:22;;;;;;;15.67;9.77;;;4.20;99.90;;;;;;5018159;28;20498;-48
2021/04/09 05:35:49;;;;;;;12.40;9.80;;;4.30;99.90;;;;;;5011395;28;20559;-44
2021/04/09 05:38:15;;;;;;;13.63;9.80;;;4.30;99.90;;;;;;5019311;28;20467;-44
2021/04/09 05:40:42;;;;;;;11.73;8.33;;;4.40;99.90;;;;;;5017243;28;20496;-50
2021/04/09 05:43:10;;;;;;;11.10;9.97;;;4.40;99.90;;;;;;5018662;28;20467;-44
2021/04/09 05:45:36;;;;;;;13.77;10.47;;;4.50;99.90;;;;;;5019277;28;20463;-43
2021/04/09 05:48:06;;;;;;;12.10;9.37;;;4.60;99.90;;;;;;5017832;28;21050;-49
2021/04/09 05:50:33;;;;;;;14.97;10.13;;;4.60;99.90;;;;;;5018768;28;20905;-46
2021/04/09 05:53:00;;;;;;;10.40;9.30;;;4.60;99.90;;;;;;5018402;28;20464;-45
2021/04/09 05:55:27;;;;;;;14.13;10.20;;;4.70;99.90;;;;;;5017017;28;20500;-43
2021/04/09 05:57:53;;;;;;;9.60;8.70;;;4.90;99.90;;;;;;5019007;28;20468;-44
2021/04/09 06:00:21;;;;;;;11.73;9.70;;;4.80;99.90;;;;;;5017024;28;20934;-42
2021/04/09 06:02:48;;;;;;;10.90;8.97;;;4.90;99.90;;;;;;5015050;28;20775;-50
2021/04/09 06:05:16;;;;;;;11.50;10.20;;;4.90;99.90;;;;;;5009560;28;20490;-44
2021/04/09 06:07:43;;;;;;;10.37;9.27;;;5.00;99.90;;;;;;5017579;28;21020;-43
2021/04/09 06:10:11;;;;;;;14.83;10.17;;;5.10;99.90;;;;;;5018439;28;20734;-43
2021/04/09 06:12:39;;;;;;;12.27;10.13;;;5.20;99.90;;;;;;5016634;28;20468;-44
2021/04/09 06:15:08;;;;;;;12.20;9.27;;;5.30;99.90;;;;;;5016414;28;20558;-43
2021/04/09 06:17:34;;;;;;;11.00;9.43;;;5.30;99.90;;;;;;5018213;28;20464;-44
2021/04/09 06:20:01;;;;;;;14.50;10.60;;;5.40;99.90;;;;;;5017689;28;20553;-47
2021/04/09 06:22:29;;;;;;;13.60;9.70;;;5.50;99.90;;;;;;5016939;28;20546;-46
2021/04/09 06:24:56;;;;;;;11.10;10.00;;;5.60;99.90;;;;;;5018649;28;20905;-42
2021/04/09 06:27:22;;;;;;;11.20;8.40;;;5.70;99.90;;;;;;5017730;28;20472;-42
2021/04/09 06:29:49;;;;;;;13.20;9.60;;;5.70;99.90;;;;;;5012430;28;20468;-46
2021/04/09 06:32:15;;;;;;;12.87;9.63;;;5.80;99.90;;;;;;5005115;28;20928;-43
2021/04/09 06:34:42;;;;;;;9.90;8.90;;;5.90;99.90;;;;;;5017328;28;20483;-43
2021/04/09 06:37:08;;;;;;;13.23;8.70;;;6.10;99.90;;;;;;5004502;28;20514;-47
2021/04/09 06:39:36;;;;;;;9.77;8.77;;;6.00;99.90;;;;;;5008771;28;20566;-44
2021/04/09 06:42:02;;;;;;;10.70;9.60;;;6.10;99.90;;;;;;5016078;28;20531;-43
2021/04/09 06:44:30;;;;;;;11.90;9.60;;;6.20;99.90;;;;;;5015891;28;20916;-46
2021/04/09 06:46:57;;;;;;;20.20;14.37;;;6.40;99.90;;;;;;5017213;28;20464;-47
2021/04/09 06:49:25;;;;;;;26.20;19.07;;;6.50;99.90;;;;;;5010588;28;20837;-43
2021/04/09 06:51:52;;;;;;;15.70;10.60;;;6.50;99.90;;;;;;5013437;28;20460;-43
2021/04/09 06:54:18;;;;;;;12.60;11.00;;;6.60;99.90;;;;;;5017594;28;20542;-43
2021/04/09 06:56:49;;;;;;;11.47;8.90;;;6.70;99.90;;;;;;5011813;28;20976;-43
2021/04/09 06:59:17;;;;;;;10.20;9.20;;;6.80;99.90;;;;;;5011914;28;20460;-44
2021/04/09 07:01:46;;;;;;;11.37;9.60;;;7.10;99.90;;;;;;5012789;28;20502;-44
2021/04/09 07:04:13;;;;;;;11.17;9.63;;;7.20;99.90;;;;;;5007961;28;20758;-48
2021/04/09 07:06:39;;;;;;;12.67;9.47;;;7.40;99.90;;;;;;5015935;28;20550;-45
2021/04/09 07:09:06;;;;;;;11.70;9.60;;;7.60;99.90;;;;;;5015308;28;20461;-44
2021/04/09 07:11:37;;;;;;;10.67;9.37;;;7.80;99.90;;;;;;5007729;28;20439;-46
2021/04/09 07:14:05;;;;;;;12.03;9.13;;;7.80;99.90;;;;;;5017318;28;20812;-45
2021/04/09 07:16:33;;;;;;;9.77;8.47;;;7.90;99.90;;;;;;5017766;28;20905;-43
2021/04/09 07:19:04;;;;;;;12.23;8.87;;;8.20;99.90;;;;;;5016481;28;20915;-44
2021/04/09 07:21:34;;;;;;;10.23;9.10;;;8.40;99.90;;;;;;5017508;28;20953;-45
2021/04/09 07:24:22;;;;;;;9.57;8.60;;;8.60;99.90;;;;;;5017239;28;20435;-44
2021/04/09 07:26:50;;;;;;;11.47;8.60;;;8.60;99.90;;;;;;5011162;28;20446;-44
2021/04/09 07:29:40;;;;;;;12.80;9.67;;;8.50;99.90;;;;;;5017725;28;20456;-47
2021/04/09 07:32:36;;;;;;;9.20;8.30;;;8.50;99.90;;;;;;5004710;28;20505;-46
2021/04/09 07:35:10;;;;;;;11.13;8.70;;;8.70;99.90;;;;;;4917918;29;20468;-47
2021/04/09 07:37:51;;;;;;;9.67;8.13;;;8.70;99.90;;;;;;4999549;28;20477;-43
2021/04/09 07:40:22;;;;;;;12.77;10.97;;;8.70;99.90;;;;;;5016168;28;20498;-45
2021/04/09 07:42:49;;;;;;;11.70;9.63;;;8.80;99.90;;;;;;5017499;28;20438;-44
2021/04/09 07:45:19;;;;;;;11.57;8.17;;;8.90;99.90;;;;;;5013881;28;20443;-43
2021/04/09 07:47:57;;;;;;;9.83;8.83;;;9.10;99.90;;;;;;5008448;28;20923;-43
2021/04/09 07:50:40;;;;;;;11.50;8.73;;;9.10;99.90;;;;;;4997475;28;20905;-44
2021/04/09 07:53:10;;;;;;;10.43;9.33;;;9.10;99.90;;;;;;5012556;28;20463;-43
2021/04/09 07:55:37;;;;;;;10.93;9.80;;;9.20;99.90;;;;;;5017020;28;20466;-50
2021/04/09 07:58:16;;;;;;;11.53;9.23;;;9.30;99.90;;;;;;5017224;28;20468;-43
2021/04/09 08:00:44;;;;;;;13.93;8.67;;;9.50;99.90;;;;;;5017469;28;20907;-44
2021/04/09 08:03:11;;;;;;;10.80;8.80;;;9.50;99.90;;;;;;5010048;28;20468;-44
2021/04/09 08:05:37;;;;;;;10.77;9.27;;;9.30;99.90;;;;;;5010982;28;20939;-46
2021/04/09 08:08:04;;;;;;;10.67;8.37;;;9.40;99.90;;;;;;5016298;28;20464;-43
2021/04/09 08:10:32;;;;;;;11.10;9.10;;;9.50;99.90;;;;;;5015512;28;20460;-43
2021/04/09 08:13:02;;;;;;;13.30;9.87;;;9.60;99.90;;;;;;5012740;28;20468;-47
2021/04/09 08:15:30;;;;;;;15.27;9.30;;;9.70;99.90;;;;;;5020252;28;20521;-43
2021/04/09 08:18:08;;;;;;;11.47;8.93;;;10.00;99.90;;;;;;5036574;28;20499;-45
2021/04/09 08:20:38;;;;;;;14.30;10.33;;;10.00;99.90;;;;;;5034684;28;20493;-46
2021/04/09 08:23:09;;;;;;;11.13;8.57;;;10.40;99.90;;;;;;5012382;28;20460;-50
2021/04/09 08:25:37;;;;;;;13.50;9.03;;;10.40;99.90;;;;;;5017695;28;20497;-44
2021/04/09 08:28:06;;;;;;;16.00;9.03;;;10.50;99.90;;;;;;5024282;28;20467;-46
2021/04/09 08:30:33;;;;;;;12.43;8.83;;;10.80;99.90;;;;;;5034335;28;20463;-48
2021/04/09 08:33:00;;;;;;;10.37;8.63;;;11.00;99.90;;;;;;5026457;28;20585;-43
2021/04/09 08:35:27;;;;;;;14.17;9.20;;;10.70;99.90;;;;;;5040707;28;20868;-46
2021/04/09 08:37:58;;;;;;;10.30;8.43;;;10.70;99.90;;;;;;5034961;28;20463;-43
2021/04/09 08:40:24;;;;;;;11.20;9.13;;;11.10;99.90;;;;;;5017248;28;20561;-45
2021/04/09 08:42:51;;;;;;;9.93;8.07;;;11.40;99.90;;;;;;5023809;28;20742;-46
2021/04/09 08:45:18;;;;;;;13.27;8.73;;;11.80;99.90;;;;;;5029050;28;20898;-50
2021/04/09 08:47:47;;;;;;;17.33;9.90;;;11.90;99.90;;;;;;5019476;28;20881;-43
2021/04/09 08:50:15;;;;;;;15.80;9.93;;;11.80;99.90;;;;;;5019461;28;20467;-43
2021/04/09 08:52:44;;;;;;;11.50;9.03;;;11.50;99.90;;;;;;5020380;28;20522;-44
2021/04/09 08:55:13;;;;;;;11.90;9.50;;;11.30;99.90;;;;;;5020148;28;20504;-50
2021/04/09 08:57:42;;;;;;;10.83;8.70;;;11.90;99.90;;;;;;5019707;28;20467;-46
2021/04/09 09:00:17;;;;;;;11.40;10.00;;;12.10;99.90;;;;;;5019757;28;20464;-49
2021/04/09 09:02:50;;;;;;;11.90;9.30;;;12.00;99.90;;;;;;4999530;28;21026;-43
2021/04/09 09:05:18;;;;;;;10.30;9.30;;;12.40;99.90;;;;;;5013303;28;20450;-47
2021/04/09 09:07:57;;;;;;;10.87;9.67;;;12.50;99.90;;;;;;5019023;28;20467;-46
2021/04/09 09:10:44;;;;;;;11.30;9.13;;;12.60;99.90;;;;;;5018809;28;20460;-45
2021/04/09 09:13:31;;;;;;;11.80;8.97;;;12.50;99.90;;;;;;5018942;28;20461;-47
2021/04/09 09:15:59;;;;;;;12.63;9.93;;;12.30;99.90;;;;;;5011744;28;20443;-44
2021/04/09 09:18:48;;;;;;;14.63;10.07;;;12.60;99.90;;;;;;5002248;28;20460;-46
2021/04/09 09:21:41;;;;;;;12.90;8.77;;;12.80;99.90;;;;;;5006940;28;20503;-42
2021/04/09 09:24:24;;;;;;;12.63;10.07;;;13.30;99.90;;;;;;5019489;28;20468;-44
2021/04/09 09:26:53;;;;;;;10.83;8.90;;;13.30;99.90;;;;;;5019633;28;20522;-45
2021/04/09 09:29:21;;;;;;;10.27;9.17;;;13.10;99.90;;;;;;5019696;28;20466;-43
2021/04/09 09:32:02;;;;;;;10.47;9.37;;;13.00;99.90;;;;;;5018112;28;20510;-46
2021/04/09 09:34:39;;;;;;;11.53;9.70;;;12.80;99.90;;;;;;5019406;28;20464;-47
2021/04/09 09:37:07;;;;;;;10.33;9.23;;;13.10;99.90;;;;;;5019152;28;20459;-45
2021/04/09 09:39:37;;;;;;;10.57;9.23;;;13.60;99.90;;;;;;5019144;28;20889;-43
2021/04/09 09:42:06;;;;;;;8.57;7.77;;;14.00;99.90;;;;;;5018724;28;20495;-47
2021/04/09 09:44:48;;;;;;;15.03;10.10;;;14.00;99.90;;;;;;5019185;28;20476;-46
2021/04/09 09:47:20;;;;;;;9.40;8.37;;;13.70;99.90;;;;;;5019225;28;20464;-46
2021/04/09 09:50:12;;;;;;;12.00;9.00;;;13.30;99.90;;;;;;5019075;28;20460;-45
2021/04/09 09:52:46;;;;;;;13.40;10.60;;;13.40;99.90;;;;;;5018996;28;20776;-45
2021/04/09 09:55:22;;;;;;;10.63;9.53;;;12.70;99.90;;;;;;5018601;28;20459;-47
2021/04/09 09:57:51;;;;;;;12.47;9.40;;;12.40;99.90;;;;;;5018452;28;20517;-48
2021/04/09 10:00:33;;;;;;;15.10;9.17;;;12.50;99.90;;;;;;5021711;28;20794;-45
2021/04/09 10:03:20;;;;;;;13.13;9.27;;;12.30;99.90;;;;;;5013966;28;20928;-47
2021/04/09 10:05:48;;;;;;;12.23;9.50;;;12.60;99.90;;;;;;5007314;28;20472;-51
2021/04/09 10:08:16;;;;;;;11.10;9.90;;;12.50;99.90;;;;;;5014367;28;20462;-48
2021/04/09 10:10:46;;;;;;;13.13;10.07;;;12.40;99.90;;;;;;5001406;28;20456;-45
2021/04/09 10:13:18;;;;;;;13.27;9.57;;;12.30;99.90;;;;;;5012032;28;20460;-44
2021/04/09 10:15:50;;;;;;;11.53;8.27;;;12.60;99.90;;;;;;5016817;28;20460;-50
2021/04/09 10:18:19;;;;;;;10.87;8.80;;;12.60;99.90;;;;;;4998870;28;20894;-42
2021/04/09 10:20:47;;;;;;;10.80;9.70;;;12.80;99.90;;;;;;5017953;28;20484;-43
2021/04/09 10:23:21;;;;;;;10.83;8.80;;;13.50;99.90;;;;;;5014647;28;20465;-43
2021/04/09 10:25:52;;;;;;;11.30;9.20;;;13.90;99.90;;;;;;5009361;28;20519;-47
2021/04/09 10:28:19;;;;;;;11.13;9.77;;;14.10;99.90;;;;;;5002405;28;20554;-46
2021/04/09 10:30:46;;;;;;;9.40;8.20;;;14.50;99.90;;;;;;5005397;28;20461;-47
2021/04/09 10:33:15;;;;;;;10.83;9.70;;;14.60;99.90;;;;;;4998668;28;20559;-47
2021/04/09 10:35:41;;;;;;;9.63;8.63;;;14.20;99.90;;;;;;4998247;28;20466;-44
2021/04/09 10:38:12;;;;;;;12.10;10.20;;;13.60;99.90;;;;;;4998441;28;20465;-46
2021/04/09 10:40:53;;;;;;;11.07;8.90;;;12.90;99.90;;;;;;4998790;28;20478;-44
2021/04/09 10:43:32;;;;;;;10.13;7.90;;;13.10;99.90;;;;;;4998584;28;20465;-43
2021/04/09 10:46:09;;;;;;;10.43;8.93;;;13.20;99.90;;;;;;5002768;28;20467;-46
2021/04/09 10:48:36;;;;;;;9.30;8.40;;;12.80;99.90;;;;;;5017753;28;20470;-45
2021/04/09 10:51:04;;;;;;;9.97;8.57;;;13.00;99.90;;;;;;5018159;28;20757;-45
2021/04/09 10:53:30;;;;;;;13.00;10.20;;;12.70;99.90;;;;;;5018439;28;20459;-43
2021/04/09 10:56:06;;;;;;;10.40;8.37;;;13.00;99.90;;;;;;5017746;28;20909;-44
2021/04/09 10:58:33;;;;;;;11.80;8.23;;;13.50;99.90;;;;;;5017731;28;20777;-46
2021/04/09 11:01:00;;;;;;;8.77;7.93;;;13.40;99.90;;;;;;5000778;28;20493;-49
2021/04/09 11:03:27;;;;;;;11.60;8.80;;;13.40;99.90;;;;;;5010136;28;20568;-49
2021/04/09 11:05:54;;;;;;;12.40;10.73;;;13.50;99.90;;;;;;5008504;28;20794;-43
2021/04/09 11:08:35;;;;;;;13.67;11.67;;;13.20;99.90;;;;;;5007266;28;20463;-48
2021/04/09 11:11:05;;;;;;;10.40;9.30;;;13.00;99.90;;;;;;5017189;28;20522;-46
2021/04/09 11:13:34;;;;;;;14.40;10.80;;;12.90;99.90;;;;;;5007439;28;20459;-43
2021/04/09 11:16:00;;;;;;;10.30;8.17;;;12.90;99.90;;;;;;5017646;28;20463;-43
2021/04/09 11:18:49;;;;;;;10.43;9.33;;;12.80;99.90;;;;;;5017352;28;20900;-42
2021/04/09 11:21:17;;;;;;;8.40;7.57;;;12.90;99.90;;;;;;5017367;28;20484;-44
2021/04/09 11:23:43;;;;;;;11.60;8.03;;;13.00;99.90;;;;;;5016852;28;20464;-45
2021/04/09 11:26:18;;;;;;;9.40;8.40;;;13.10;99.90;;;;;;5017237;28;20571;-44
2021/04/09 11:28:52;;;;;;;9.80;8.17;;;13.90;99.90;;;;;;5017411;28;20459;-44
2021/04/09 11:31:25;;;;;;;8.47;7.30;;;14.70;99.90;;;;;;5012426;28;20865;-47
2021/04/09 11:34:04;;;;;;;9.63;8.53;;;15.40;99.90;;;;;;4997895;28;20465;-44
2021/04/09 11:36:39;;;;;;;10.63;8.43;;;15.60;99.90;;;;;;4998085;28;20461;-46
2021/04/09 11:39:10;;;;;;;10.77;8.83;;;15.10;99.90;;;;;;5007255;28;20517;-47
2021/04/09 11:41:38;;;;;;;13.00;9.40;;;15.00;99.90;;;;;;5017474;28;20499;-44
2021/04/09 11:44:25;;;;;;;9.97;8.80;;;14.60;99.90;;;;;;5017216;28;20467;-47
2021/04/09 11:47:10;;;;;;;9.50;8.60;;;14.50;99.90;;;;;;5016690;28;20730;-44
2021/04/09 11:49:36;;;;;;;9.47;8.37;;;14.60;99.90;;;;;;5007214;28;20460;-44
2021/04/09 11:52:07;;;;;;;13.30;8.07;;;14.80;99.90;;;;;;5016672;28;20783;-50
2021/04/09 11:54:35;;;;;;;9.20;8.30;;;14.80;99.90;;;;;;5018360;28;20475;-46
2021/04/09 11:57:03;;;;;;;9.67;8.67;;;14.60;99.90;;;;;;5018545;28;20471;-43
2021/04/09 11:59:36;;;;;;;10.37;9.30;;;14.00;99.90;;;;;;5012562;28;20469;-44
2021/04/09 12:02:17;;;;;;;9.70;8.80;;;14.20;99.90;;;;;;5001737;28;20603;-46
2021/04/09 12:04:46;;;;;;;12.83;9.83;;;14.30;99.90;;;;;;5010209;28;20472;-47
2021/04/09 12:07:15;;;;;;;10.70;9.47;;;14.80;99.90;;;;;;5010980;28;20461;-45
2021/04/09 12:09:43;;;;;;;10.90;9.20;;;15.00;99.90;;;;;;5013539;28;20776;-47
2021/04/09 12:12:15;;;;;;;10.33;8.97;;;14.40;99.90;;;;;;5021125;28;20470;-45
2021/04/09 12:14:46;;;;;;;10.60;9.10;;;14.20;99.90;;;;;;5002153;28;20465;-46
2021/04/09 12:17:15;;;;;;;9.90;8.90;;;14.10;99.90;;;;;;5019357;28;20503;-43
2021/04/09 12:19:43;;;;;;;9.40;8.00;;;13.80;99.90;;;;;;5019293;28;20489;-46
2021/04/09 12:22:10;;;;;;;12.23;9.27;;;13.80;99.90;;;;;;5012947;28;20507;-45
2021/04/09 12:24:37;;;;;;;9.43;8.43;;;13.10;99.90;;;;;;5007799;28;20901;-43
2021/04/09 12:27:05;;;;;;;10.47;8.80;;;13.00;99.90;;;;;;5026924;28;20904;-42
2021/04/09 12:29:33;;;;;;;14.27;9.30;;;13.30;99.90;;;;;;5013457;28;20772;-44
2021/04/09 12:32:00;;;;;;;11.27;8.83;;;13.70;99.90;;;;;;5020376;28;20496;-44
2021/04/09 12:34:28;;;;;;;11.23;8.40;;;13.70;99.90;;;;;;5005193;28;20496;-43
2021/04/09 12:36:55;;;;;;;9.53;8.17;;;14.10;99.90;;;;;;5001025;28;20960;-43
2021/04/09 12:39:23;;;;;;;8.87;7.33;;;14.30;99.90;;;;;;5000669;28;20471;-48
2021/04/09 12:41:50;;;;;;;10.63;8.30;;;14.30;99.90;;;;;;5018592;28;20947;-45
2021/04/09 12:44:19;;;;;;;9.07;8.20;;;14.30;99.90;;;;;;5020571;28;20460;-48
2021/04/09 12:46:49;;;;;;;8.87;8.07;;;14.50;99.90;;;;;;5020059;28;20471;-45
2021/04/09 12:49:17;;;;;;;11.87;7.20;;;14.40;99.90;;;;;;5019891;28;20464;-43
2021/04/09 12:51:46;;;;;;;9.03;7.50;;;13.90;99.90;;;;;;5019891;28;20789;-45
2021/04/09 12:54:15;;;;;;;11.10;7.70;;;13.60;99.90;;;;;;5019214;28;20781;-42
2021/04/09 12:56:42;;;;;;;8.47;7.67;;;13.30;99.90;;;;;;5014755;28;20471;-42